createdAt,value
2017-11-08T00:02:18.477Z,46.60
2017-11-08T00:04:45.156Z,48.67
2017-11-08T00:07:11.805Z,48.40
2017-11-08T00:09:39.267Z,49.17
2017-11-08T00:12:06.927Z,47.77
2017-11-08T00:14:33.611Z,48.37
2017-11-08T00:17:01.065Z,47.47
2017-11-08T00:19:29.283Z,47.33
2017-11-08T00:21:55.942Z,45.53
2017-11-08T00:24:26.458Z,46.57
2017-11-08T00:26:53.498Z,44.83
2017-11-08T00:29:20.259Z,43.20
2017-11-08T00:31:46.946Z,42.80
2017-11-08T00:34:13.666Z,41.07
2017-11-08T00:36:40.319Z,43.90
2017-11-08T00:39:08.843Z,44.57
2017-11-08T00:41:36.240Z,42.87
2017-11-08T00:44:02.862Z,44.60
2017-11-08T00:46:29.554Z,44.80
2017-11-08T00:48:58.234Z,47.33
2017-11-08T00:51:24.901Z,45.90
2017-11-08T00:53:52.583Z,47.70
2017-11-08T00:56:20.284Z,48.63
2017-11-08T00:58:46.959Z,47.13
2017-11-08T01:01:13.671Z,41.67
2017-11-08T01:03:40.364Z,41.43
2017-11-08T01:06:07.041Z,45.83
2017-11-08T01:08:33.749Z,48.17
2017-11-08T01:11:00.419Z,51.08
2017-11-08T01:13:28.093Z,49.50
2017-11-08T01:15:54.824Z,48.23
2017-11-08T01:18:22.841Z,47.20
2017-11-08T01:20:49.483Z,45.40
2017-11-08T01:23:16.175Z,48.50
2017-11-08T01:25:43.588Z,44.00
2017-11-08T01:28:10.328Z,49.43
2017-11-08T01:30:37.034Z,50.03
2017-11-08T01:33:04.543Z,49.50
2017-11-08T01:35:31.203Z,51.60
2017-11-08T01:37:58.443Z,50.20
2017-11-08T01:40:25.121Z,48.87
2017-11-08T01:42:52.519Z,46.33
2017-11-08T01:45:20.097Z,48.73
2017-11-08T01:47:46.763Z,48.23
2017-11-08T01:50:14.052Z,49.70
2017-11-08T01:52:41.478Z,50.00
2017-11-08T01:55:09.083Z,50.20
2017-11-08T01:57:37.535Z,48.03
2017-11-08T02:00:04.234Z,47.23
2017-11-08T02:02:30.939Z,50.50
2017-11-08T02:04:58.392Z,49.70
2017-11-08T02:07:25.100Z,48.53
2017-11-08T02:09:52.702Z,47.50
2017-11-08T02:12:20.286Z,48.13
2017-11-08T02:14:47.830Z,53.63
2017-11-08T02:17:14.540Z,52.33
2017-11-08T02:19:44.190Z,50.55
2017-11-08T02:22:10.966Z,48.07
2017-11-08T02:24:37.732Z,49.13
2017-11-08T02:27:06.403Z,45.90
2017-11-08T02:29:33.169Z,48.20
2017-11-08T02:32:00.506Z,48.10
2017-11-08T02:34:27.202Z,46.17
2017-11-08T02:36:53.959Z,45.97
2017-11-08T02:39:20.637Z,43.73
2017-11-08T02:41:47.299Z,45.27
2017-11-08T02:44:13.972Z,45.90
2017-11-08T02:46:40.675Z,47.10
2017-11-08T02:49:07.388Z,46.23
2017-11-08T02:51:34.901Z,44.17
2017-11-08T02:54:01.569Z,44.43
2017-11-08T02:56:28.210Z,44.90
2017-11-08T02:58:55.911Z,45.00
2017-11-08T03:01:24.352Z,43.20
2017-11-08T03:03:51.018Z,43.93
2017-11-08T03:06:18.133Z,43.97
2017-11-08T03:08:44.793Z,44.83
2017-11-08T03:11:12.267Z,47.00
2017-11-08T03:13:39.052Z,45.37
2017-11-08T03:16:05.709Z,48.37
2017-11-08T03:18:33.391Z,47.17
2017-11-08T03:21:00.071Z,47.20
2017-11-08T03:23:26.994Z,45.77
2017-11-08T03:25:53.636Z,45.20
2017-11-08T03:28:20.574Z,42.67
2017-11-08T03:30:48.039Z,45.00
2017-11-08T03:33:14.817Z,44.67
2017-11-08T03:35:42.330Z,45.47
2017-11-08T03:38:09.903Z,48.30
2017-11-08T03:40:36.572Z,46.20
2017-11-08T03:43:03.283Z,47.67
2017-11-08T03:45:29.953Z,47.33
2017-11-08T03:47:56.617Z,49.63
2017-11-08T03:50:24.618Z,46.10
2017-11-08T03:52:51.347Z,46.70
2017-11-08T03:55:18.350Z,47.50
2017-11-08T03:57:45.833Z,47.03
2017-11-08T04:00:12.627Z,46.33
2017-11-08T04:02:39.367Z,47.53
2017-11-08T04:05:06.130Z,43.63
2017-11-08T04:07:33.773Z,41.80
2017-11-08T04:10:00.515Z,42.33
2017-11-08T04:12:27.262Z,36.00
2017-11-08T04:14:53.930Z,40.10
2017-11-08T04:17:20.672Z,40.23
2017-11-08T04:19:47.439Z,37.00
2017-11-08T04:22:14.123Z,38.90
2017-11-08T04:24:41.513Z,40.23
2017-11-08T04:27:08.219Z,38.43
2017-11-08T04:29:35.608Z,36.77
2017-11-08T04:32:02.265Z,40.50
2017-11-08T04:34:28.969Z,40.50
2017-11-08T04:36:56.448Z,41.43
2017-11-08T04:39:23.119Z,41.70
2017-11-08T04:41:49.792Z,45.53
2017-11-08T04:44:17.443Z,39.83
2017-11-08T04:46:45.061Z,39.10
2017-11-08T04:49:11.769Z,39.87
2017-11-08T04:51:38.549Z,41.03
2017-11-08T04:54:05.232Z,43.43
2017-11-08T04:56:31.924Z,44.60
2017-11-08T04:58:59.327Z,39.73
2017-11-08T05:01:25.993Z,41.67
2017-11-08T05:03:52.713Z,45.07
2017-11-08T05:06:19.499Z,42.43
2017-11-08T05:08:46.922Z,44.33
2017-11-08T05:11:13.623Z,44.77
2017-11-08T05:13:40.282Z,39.00
2017-11-08T05:16:06.948Z,40.13
2017-11-08T05:18:33.647Z,39.00
2017-11-08T05:21:00.331Z,44.07
2017-11-08T05:23:26.983Z,40.70
2017-11-08T05:25:54.012Z,36.00
2017-11-08T05:28:20.703Z,39.90
2017-11-08T05:30:47.478Z,38.20
2017-11-08T05:33:14.142Z,40.27
2017-11-08T05:35:40.813Z,40.40
2017-11-08T05:38:07.462Z,40.17
2017-11-08T05:40:34.147Z,41.47
2017-11-08T05:43:00.795Z,37.80
2017-11-08T05:45:27.419Z,37.27
2017-11-08T05:47:54.962Z,37.80
2017-11-08T05:50:22.381Z,36.50
2017-11-08T05:52:49.114Z,35.43
2017-11-08T05:55:15.793Z,40.77
2017-11-08T05:57:42.466Z,40.27
2017-11-08T06:00:09.184Z,38.77
2017-11-08T06:02:35.881Z,45.00
2017-11-08T06:05:02.567Z,41.00
2017-11-08T06:07:29.232Z,43.67
2017-11-08T06:09:56.746Z,43.60
2017-11-08T06:12:24.371Z,48.13
2017-11-08T06:14:51.853Z,44.67
2017-11-08T06:17:18.548Z,45.13
2017-11-08T06:19:45.242Z,43.10
2017-11-08T06:22:11.891Z,38.43
2017-11-08T06:24:38.579Z,39.13
2017-11-08T06:27:06.056Z,42.33
2017-11-08T06:29:33.430Z,41.73
2017-11-08T06:32:00.144Z,41.27
2017-11-08T06:34:27.379Z,43.90
2017-11-08T06:36:54.069Z,40.70
2017-11-08T06:39:21.544Z,40.90
2017-11-08T06:41:49.653Z,43.13
2017-11-08T06:44:16.320Z,44.17
2017-11-08T06:46:43.025Z,42.73
2017-11-08T06:49:09.670Z,42.87
2017-11-08T06:51:36.356Z,47.50
2017-11-08T06:54:03.058Z,46.27
2017-11-08T06:56:29.723Z,47.80
2017-11-08T06:58:56.424Z,46.77
2017-11-08T07:01:23.201Z,49.67
2017-11-08T07:03:49.858Z,48.60
2017-11-08T07:06:17.296Z,48.40
2017-11-08T07:08:44.457Z,47.33
2017-11-08T07:11:11.104Z,52.03
2017-11-08T07:13:37.786Z,51.30
2017-11-08T07:16:06.261Z,50.60
2017-11-08T07:18:33.949Z,51.33
2017-11-08T07:21:00.628Z,48.20
2017-11-08T07:23:27.360Z,54.90
2017-11-08T07:25:54.472Z,48.90
2017-11-08T07:28:22.742Z,54.92
2017-11-08T07:30:49.723Z,53.38
2017-11-08T07:33:16.373Z,52.17
2017-11-08T07:35:43.046Z,55.10
2017-11-08T07:38:09.727Z,56.90
2017-11-08T07:40:36.402Z,54.73
2017-11-08T07:43:04.089Z,51.77
2017-11-08T07:45:30.766Z,54.63
2017-11-08T07:47:58.200Z,51.50
2017-11-08T07:50:24.856Z,54.97
2017-11-08T07:52:51.625Z,52.47
2017-11-08T07:55:22.271Z,51.50
2017-11-08T07:57:49.712Z,51.57
2017-11-08T08:00:17.347Z,53.57
2017-11-08T08:02:44.001Z,53.20
2017-11-08T08:05:10.683Z,53.22
2017-11-08T08:07:41.122Z,57.50
2017-11-08T08:10:08.590Z,52.00
2017-11-08T08:12:36.619Z,47.67
2017-11-08T08:15:04.296Z,48.43
2017-11-08T08:17:31.116Z,49.10
2017-11-08T08:19:57.826Z,44.10
2017-11-08T08:22:25.348Z,44.50
2017-11-08T08:24:52.797Z,44.90
2017-11-08T08:27:19.986Z,46.57
2017-11-08T08:29:47.443Z,45.57
2017-11-08T08:32:14.853Z,46.37
2017-11-08T08:34:41.942Z,46.83
2017-11-08T08:37:08.695Z,46.60
2017-11-08T08:39:36.172Z,42.70
2017-11-08T08:42:03.635Z,42.50
2017-11-08T08:44:31.708Z,41.73
2017-11-08T08:46:59.749Z,46.10
2017-11-08T08:49:27.052Z,42.37
2017-11-08T08:51:53.728Z,46.23
2017-11-08T08:54:21.235Z,40.90
2017-11-08T08:56:48.635Z,40.07
2017-11-08T08:59:15.614Z,40.63
2017-11-08T09:01:43.516Z,42.30
2017-11-08T09:04:10.998Z,42.70
2017-11-08T09:06:37.667Z,43.83
2017-11-08T09:09:04.391Z,41.23
2017-11-08T09:11:32.094Z,40.70
2017-11-08T09:13:58.831Z,43.07
2017-11-08T09:16:26.360Z,40.40
2017-11-08T09:18:53.036Z,44.33
2017-11-08T09:21:19.836Z,43.30
2017-11-08T09:23:47.298Z,40.57
2017-11-08T09:26:15.076Z,44.85
2017-11-08T09:28:41.806Z,41.63
2017-11-08T09:31:08.538Z,37.20
2017-11-08T09:33:36.019Z,39.33
2017-11-08T09:36:02.784Z,42.53
2017-11-08T09:38:29.462Z,44.10
2017-11-08T09:40:56.178Z,36.17
2017-11-08T09:43:23.884Z,35.90
2017-11-08T09:45:50.591Z,38.33
2017-11-08T09:48:17.364Z,37.90
2017-11-08T09:50:44.140Z,37.37
2017-11-08T09:53:10.855Z,38.83
2017-11-08T09:55:37.511Z,37.83
2017-11-08T09:58:04.275Z,35.23
2017-11-08T10:00:32.631Z,35.50
2017-11-08T10:02:59.618Z,34.07
2017-11-08T10:05:30.167Z,34.57
2017-11-08T10:07:58.812Z,34.93
2017-11-08T10:10:29.573Z,32.27
2017-11-08T10:13:03.126Z,35.90
2017-11-08T10:15:29.906Z,34.63
2017-11-08T10:17:58.274Z,33.07
2017-11-08T10:20:25.032Z,32.67
2017-11-08T10:22:52.520Z,33.03
2017-11-08T10:25:19.231Z,31.47
2017-11-08T10:27:45.934Z,30.17
2017-11-08T10:30:12.643Z,30.60
2017-11-08T10:32:39.338Z,29.50
2017-11-08T10:35:06.012Z,29.37
2017-11-08T10:37:33.452Z,27.00
2017-11-08T10:40:00.129Z,29.07
2017-11-08T10:44:54.160Z,27.43
2017-11-08T10:47:20.838Z,29.20
2017-11-08T10:49:50.402Z,29.10
2017-11-08T10:52:17.134Z,30.07
2017-11-08T10:54:43.892Z,26.77
2017-11-08T10:57:10.605Z,28.27
2017-11-08T10:59:43.417Z,27.03
2017-11-08T11:02:10.191Z,26.00
2017-11-08T11:04:36.938Z,25.27
2017-11-08T11:07:03.713Z,24.33
2017-11-08T11:09:30.472Z,21.93
2017-11-08T11:11:57.247Z,20.10
2017-11-08T11:14:24.305Z,21.57
2017-11-08T11:16:51.032Z,22.60
2017-11-08T11:19:20.749Z,24.10
2017-11-08T11:21:48.539Z,22.20
2017-11-08T11:24:16.300Z,22.87
2017-11-08T11:26:43.949Z,19.80
2017-11-08T11:29:13.090Z,19.87
2017-11-08T11:31:40.076Z,21.10
2017-11-08T11:34:06.897Z,19.50
2017-11-08T11:36:34.390Z,17.50
2017-11-08T11:39:01.130Z,20.00
2017-11-08T11:41:28.220Z,19.40
2017-11-08T11:43:55.052Z,20.37
2017-11-08T11:46:21.818Z,17.20
2017-11-08T11:48:53.478Z,17.93
2017-11-08T11:51:25.091Z,16.73
2017-11-08T11:53:51.885Z,13.60
2017-11-08T11:56:18.682Z,10.33
2017-11-08T11:58:45.995Z,9.77
2017-11-08T12:01:12.791Z,9.30
2017-11-08T12:03:39.575Z,12.27
2017-11-08T12:06:06.488Z,11.93
2017-11-08T12:08:34.148Z,12.60
2017-11-08T12:11:01.081Z,11.75
2017-11-08T12:13:29.432Z,11.90
2017-11-08T12:15:57.169Z,11.03
2017-11-08T12:18:24.811Z,8.70
2017-11-08T12:20:51.633Z,10.63
2017-11-08T12:23:19.260Z,9.73
2017-11-08T12:25:47.000Z,9.23
2017-11-08T12:28:18.460Z,6.20
2017-11-08T12:30:45.266Z,3.70
2017-11-08T12:33:13.010Z,4.12
2017-11-08T12:35:40.565Z,6.30
2017-11-08T12:38:08.317Z,4.67
2017-11-08T12:40:35.080Z,5.10
2017-11-08T12:43:01.832Z,3.90
2017-11-08T12:45:28.836Z,3.67
2017-11-08T12:47:55.984Z,3.97
2017-11-08T12:50:28.958Z,4.00
2017-11-08T12:52:56.460Z,4.07
2017-11-08T12:55:23.244Z,3.87
2017-11-08T12:57:50.061Z,4.43
2017-11-08T13:00:16.881Z,4.90
2017-11-08T13:02:47.340Z,4.60
2017-11-08T13:05:14.118Z,5.43
2017-11-08T13:07:41.083Z,5.00
2017-11-08T13:10:07.861Z,5.33
2017-11-08T13:12:34.746Z,5.80
2017-11-08T13:15:01.509Z,6.37
2017-11-08T13:17:28.296Z,6.27
2017-11-08T13:19:55.075Z,5.60
2017-11-08T13:22:21.845Z,5.87
2017-11-08T13:24:48.580Z,5.87
2017-11-08T13:27:15.385Z,4.47
2017-11-08T13:29:42.146Z,5.77
2017-11-08T13:32:08.888Z,5.70
2017-11-08T13:34:35.662Z,4.80
2017-11-08T13:37:02.421Z,4.30
2017-11-08T13:39:29.904Z,4.87
2017-11-08T13:41:57.427Z,4.97
2017-11-08T13:44:24.172Z,4.40
2017-11-08T13:46:50.916Z,4.60
2017-11-08T13:49:17.714Z,4.30
2017-11-08T13:51:44.527Z,4.90
2017-11-08T13:54:11.344Z,5.10
2017-11-08T13:56:38.136Z,4.77
2017-11-08T13:59:05.611Z,4.83
2017-11-08T14:01:32.436Z,4.70
2017-11-08T14:04:05.039Z,5.27
2017-11-08T14:06:32.525Z,5.77
2017-11-08T14:08:59.215Z,4.70
2017-11-08T14:11:26.842Z,5.40
2017-11-08T14:13:53.500Z,4.97
2017-11-08T14:16:20.170Z,4.10
2017-11-08T14:18:46.849Z,4.67
2017-11-08T14:21:13.549Z,6.20
2017-11-08T14:23:41.008Z,4.60
2017-11-08T14:26:07.703Z,5.00
2017-11-08T14:28:34.412Z,5.90
2017-11-08T14:31:02.435Z,4.47
2017-11-08T14:33:29.223Z,5.37
2017-11-08T14:35:55.984Z,4.43
2017-11-08T14:38:23.388Z,4.63
2017-11-08T14:40:50.083Z,5.50
2017-11-08T14:43:18.290Z,4.70
2017-11-08T14:45:44.947Z,5.50
2017-11-08T14:48:11.648Z,5.53
2017-11-08T14:50:39.047Z,5.83
2017-11-08T14:53:07.677Z,4.80
2017-11-08T14:55:34.380Z,4.83
2017-11-08T14:58:01.056Z,5.17
2017-11-08T15:00:30.756Z,5.03
2017-11-08T15:02:57.493Z,6.93
2017-11-08T15:05:24.198Z,6.30
2017-11-08T15:07:50.896Z,6.17
2017-11-08T15:10:17.604Z,7.00
2017-11-08T15:12:44.334Z,6.50
2017-11-08T15:15:15.016Z,6.75
2017-11-08T15:17:44.704Z,7.90
2017-11-08T15:20:17.529Z,5.17
2017-11-08T15:22:44.247Z,5.30
2017-11-08T15:25:10.981Z,6.10
2017-11-08T15:27:37.676Z,6.27
2017-11-08T15:30:06.966Z,6.43
2017-11-08T15:32:36.497Z,6.17
2017-11-08T15:35:04.405Z,6.40
2017-11-08T15:37:31.103Z,6.70
2017-11-08T15:39:58.673Z,6.47
2017-11-08T15:42:25.375Z,6.10
2017-11-08T15:44:52.035Z,6.30
2017-11-08T15:47:18.704Z,6.20
2017-11-08T15:49:46.111Z,6.57
2017-11-08T15:52:12.759Z,6.33
2017-11-08T15:54:39.465Z,6.50
2017-11-08T15:57:06.914Z,5.23
2017-11-08T15:59:34.349Z,6.83
2017-11-08T16:02:01.088Z,8.37
2017-11-08T16:04:27.783Z,7.53
2017-11-08T16:06:54.517Z,7.30
2017-11-08T16:09:21.277Z,7.75
2017-11-08T16:11:47.956Z,8.50
2017-11-08T16:14:14.638Z,7.50
2017-11-08T16:16:42.071Z,9.00
2017-11-08T16:19:08.763Z,7.70
2017-11-08T16:21:35.497Z,9.40
2017-11-08T16:24:02.200Z,9.80
2017-11-08T16:26:29.890Z,8.50
2017-11-08T16:28:57.323Z,11.45
2017-11-08T16:31:24.049Z,9.90
2017-11-08T16:33:50.721Z,12.15
2017-11-08T16:36:17.495Z,12.68
2017-11-08T16:38:44.223Z,14.17
2017-11-08T16:41:11.660Z,13.63
2017-11-08T16:43:38.346Z,14.20
2017-11-08T16:46:05.090Z,12.83
2017-11-08T16:48:31.735Z,13.60
2017-11-08T16:50:58.416Z,14.23
2017-11-08T16:53:25.961Z,12.40
2017-11-08T16:55:52.655Z,13.90
2017-11-08T16:58:20.078Z,13.27
2017-11-08T17:00:46.906Z,13.43
2017-11-08T17:03:13.702Z,13.02
2017-11-08T17:05:40.381Z,14.07
2017-11-08T17:08:07.115Z,13.18
2017-11-08T17:10:33.806Z,12.70
2017-11-08T17:13:00.526Z,13.27
2017-11-08T17:15:27.235Z,13.40
2017-11-08T17:17:53.919Z,13.77
2017-11-08T17:20:20.637Z,11.00
2017-11-08T17:22:47.352Z,12.37
2017-11-08T17:25:14.045Z,10.87
2017-11-08T17:27:40.747Z,11.23
2017-11-08T17:30:08.170Z,11.00
2017-11-08T17:32:34.890Z,11.02
2017-11-08T17:35:01.642Z,11.93
2017-11-08T17:37:28.353Z,11.25
2017-11-08T17:39:55.081Z,11.52
2017-11-08T17:42:22.507Z,12.80
2017-11-08T17:44:49.239Z,11.77
2017-11-08T17:47:15.932Z,13.40
2017-11-08T17:49:43.381Z,12.00
2017-11-08T17:52:10.844Z,13.13
2017-11-08T17:54:39.276Z,14.30
2017-11-08T17:57:05.962Z,13.27
2017-11-08T17:59:34.209Z,20.27
2017-11-08T18:02:00.918Z,20.10
2017-11-08T18:04:28.540Z,21.80
2017-11-08T18:06:56.277Z,19.48
2017-11-08T18:09:22.978Z,18.40
2017-11-08T18:11:50.420Z,18.80
2017-11-08T18:14:17.129Z,19.17
2017-11-08T18:16:43.822Z,20.37
2017-11-08T18:19:11.268Z,17.98
2017-11-08T18:21:38.020Z,18.75
2017-11-08T18:24:04.760Z,19.37
2017-11-08T18:26:31.616Z,19.75
2017-11-08T18:28:59.087Z,18.62
2017-11-08T18:31:26.548Z,20.43
2017-11-08T18:33:53.237Z,19.55
2017-11-08T18:36:19.937Z,21.75
2017-11-08T18:38:46.722Z,21.05
2017-11-08T18:41:13.442Z,21.48
2017-11-08T18:43:40.173Z,22.42
2017-11-08T18:46:06.884Z,22.98
2017-11-08T18:48:33.582Z,20.50
2017-11-08T18:51:00.323Z,26.60
2017-11-08T18:53:27.025Z,26.60
2017-11-08T18:55:53.698Z,23.85
2017-11-08T18:58:20.375Z,24.10
2017-11-08T19:00:47.059Z,26.60
2017-11-08T19:03:14.617Z,24.60
2017-11-08T19:05:42.142Z,25.92
2017-11-08T19:08:08.873Z,24.27
2017-11-08T19:10:35.564Z,24.33
2017-11-08T19:13:02.277Z,27.05
2017-11-08T19:15:29.980Z,27.90
2017-11-08T19:17:56.663Z,26.00
2017-11-08T19:20:23.388Z,24.55
2017-11-08T19:22:50.101Z,28.10
2017-11-08T19:25:16.785Z,25.00
2017-11-08T19:27:43.492Z,25.40
2017-11-08T19:30:10.185Z,25.85
2017-11-08T19:32:36.902Z,24.40
2017-11-08T19:35:03.628Z,26.58
2017-11-08T19:37:31.067Z,26.67
2017-11-08T19:39:57.758Z,26.70
2017-11-08T19:42:24.517Z,25.70
2017-11-08T19:44:51.202Z,25.08
2017-11-08T19:47:17.873Z,24.30
2017-11-08T19:49:44.583Z,26.33
2017-11-08T19:52:11.423Z,30.52
2017-11-08T19:54:38.123Z,32.53
2017-11-08T19:57:04.892Z,32.25
2017-11-08T19:59:31.583Z,30.23
2017-11-08T20:01:59.070Z,34.83
2017-11-08T20:04:25.845Z,30.02
2017-11-08T20:06:52.549Z,31.75
2017-11-08T20:09:19.979Z,32.47
2017-11-08T20:11:46.724Z,36.30
2017-11-08T20:14:13.502Z,32.80
2017-11-08T20:16:40.201Z,34.47
2017-11-08T20:19:06.921Z,35.33
2017-11-08T20:21:33.631Z,29.33
2017-11-08T20:24:00.413Z,30.98
2017-11-08T20:26:27.101Z,31.75
2017-11-08T20:28:54.543Z,30.45
2017-11-08T20:31:21.231Z,28.23
2017-11-08T20:33:48.243Z,29.50
2017-11-08T20:36:14.943Z,28.30
2017-11-08T20:38:41.640Z,25.75
2017-11-08T20:41:08.452Z,27.70
2017-11-08T20:43:35.137Z,26.40
2017-11-08T20:46:02.619Z,28.17
2017-11-08T20:48:29.313Z,28.47
2017-11-08T20:50:56.000Z,27.77
2017-11-08T20:53:22.741Z,26.90
2017-11-08T20:55:49.458Z,27.95
2017-11-08T20:58:16.153Z,29.23
2017-11-08T21:00:42.955Z,25.50
2017-11-08T21:03:10.397Z,28.50
2017-11-08T21:05:37.131Z,27.73
2017-11-08T21:08:03.789Z,33.65
2017-11-08T21:10:30.476Z,32.75
2017-11-08T21:12:57.175Z,33.87
2017-11-08T21:15:24.644Z,30.55
2017-11-08T21:17:52.090Z,28.25
2017-11-08T21:20:18.745Z,28.33
2017-11-08T21:22:45.510Z,28.70
2017-11-08T21:25:12.970Z,28.12
2017-11-08T21:27:40.430Z,28.60
2017-11-08T21:30:07.888Z,27.67
2017-11-08T21:32:35.360Z,27.55
2017-11-08T21:35:03.759Z,29.92
2017-11-08T21:37:30.475Z,27.90
2017-11-08T21:39:57.987Z,31.20
2017-11-08T21:42:24.680Z,29.37
2017-11-08T21:44:52.157Z,31.50
2017-11-08T21:47:18.855Z,30.65
2017-11-08T21:49:45.517Z,31.12
2017-11-08T21:52:12.190Z,29.17
2017-11-08T21:54:38.961Z,29.87
2017-11-08T21:57:05.694Z,29.50
2017-11-08T21:59:32.368Z,31.55
2017-11-08T22:01:59.089Z,30.10
2017-11-08T22:04:25.804Z,31.48
2017-11-08T22:06:52.507Z,27.42
2017-11-08T22:09:19.217Z,27.13
2017-11-08T22:11:45.923Z,27.75
2017-11-08T22:14:13.351Z,24.25
2017-11-08T22:16:40.084Z,26.27
2017-11-08T22:19:06.800Z,25.30
2017-11-08T22:21:33.595Z,24.80
2017-11-08T22:24:00.344Z,24.87
2017-11-08T22:26:27.027Z,22.33
2017-11-08T22:28:53.752Z,25.77
2017-11-08T22:31:21.230Z,26.23
2017-11-08T22:33:47.898Z,26.98
2017-11-08T22:36:14.636Z,27.50
2017-11-08T22:38:41.385Z,27.58
2017-11-08T22:41:08.064Z,28.42
2017-11-08T22:43:34.808Z,27.37
2017-11-08T22:46:01.574Z,25.75
2017-11-08T22:48:29.046Z,25.67
2017-11-08T22:50:55.730Z,24.85
2017-11-08T22:53:23.151Z,26.45
2017-11-08T22:55:49.858Z,25.00
2017-11-08T22:58:17.302Z,23.95
2017-11-08T23:00:44.018Z,24.25
2017-11-08T23:03:10.675Z,22.67
2017-11-08T23:05:37.346Z,22.03
2017-11-08T23:08:04.046Z,22.27
2017-11-08T23:10:30.752Z,25.12
2017-11-08T23:12:58.231Z,23.60
2017-11-08T23:15:24.975Z,24.65
2017-11-08T23:17:51.672Z,21.23
2017-11-08T23:20:19.140Z,21.65
2017-11-08T23:22:45.829Z,21.60
2017-11-08T23:25:12.497Z,21.90
2017-11-08T23:27:39.167Z,21.60
2017-11-08T23:30:06.000Z,22.45
2017-11-08T23:32:32.727Z,23.38
2017-11-08T23:34:59.411Z,24.15
2017-11-08T23:37:27.142Z,24.40
2017-11-08T23:39:53.879Z,24.60
2017-11-08T23:42:20.577Z,26.20
2017-11-08T23:44:47.276Z,24.60
2017-11-08T23:47:13.936Z,27.35
2017-11-08T23:49:40.624Z,26.33
2017-11-08T23:52:07.315Z,25.47
2017-11-08T23:54:34.017Z,26.08
2017-11-08T23:57:00.793Z,26.02
2017-11-08T23:59:28.390Z,25.00
